SBPB/PHB METAR and TAF weather

Enter ICAO airport designator
Station Type Date Time Source
SBPB METAR 2021/05/14 18:45 UTC NOAA

SBPB 141845Z 18004KT 9999 BKN020 BKN100 26/25 Q1010


Station Type Date Time Source
SBPB Decoded METAR 2021/05/14 18:45 UTC NOAA

Parnaiba Aeroporto , Brazil (SBPB) 02-55S 041-45W
May 14, 2021 - 02:45 PM EDT / 2021.05.14 1845 UTC
Wind: from the S (180 degrees) at 5 MPH (4 KT):0
Visibility: greater than 7 mile(s):0
Sky conditions: mostly cloudy
Temperature: 78 F (26 C)
Dew Point: 77 F (25 C)
Relative Humidity: 94%
Pressure (altimeter): 29.83 in. Hg (1010 hPa)
ob: SBPB 141845Z 18004KT 9999 BKN020 BKN100 26/25 Q1010
cycle: 19

Station Type Date Time Source
SBPB TAF 2021/05/14 18:51 UTC NOAA

TAF SBPB 141546Z 1418/1506 04010KT 9999 SCT020 TX31/1418Z TN24/1506Z
RMK PHQ

Example: see airport list